sensor_id;sensor_type;location;lat;lon;timestamp;P1;durP1;ratioP1;P2;durP2;ratioP2
29574;SDS011;16507;51.046;6.406;2022-08-01T00:01:04;1.75;;;1.52;;
29574;SDS011;16507;51.046;6.406;2022-08-01T00:03:30;3.58;;;1.40;;
29574;SDS011;16507;51.046;6.406;2022-08-01T00:05:56;5.03;;;2.08;;
29574;SDS011;16507;51.046;6.406;2022-08-01T00:08:21;1.45;;;1.42;;
29574;SDS011;16507;51.046;6.406;2022-08-01T00:10:47;1.77;;;1.50;;
29574;SDS011;16507;51.046;6.406;2022-08-01T00:13:12;1.70;;;1.60;;
29574;SDS011;16507;51.046;6.406;2022-08-01T00:15:38;1.73;;;1.63;;
29574;SDS011;16507;51.046;6.406;2022-08-01T00:18:04;2.80;;;1.42;;
29574;SDS011;16507;51.046;6.406;2022-08-01T00:20:29;1.35;;;1.25;;
29574;SDS011;16507;51.046;6.406;2022-08-01T00:22:55;1.80;;;1.70;;
29574;SDS011;16507;51.046;6.406;2022-08-01T00:25:21;1.95;;;1.77;;
29574;SDS011;16507;51.046;6.406;2022-08-01T00:27:46;4.10;;;1.83;;
29574;SDS011;16507;51.046;6.406;2022-08-01T00:30:12;1.73;;;1.63;;
29574;SDS011;16507;51.046;6.406;2022-08-01T00:32:37;4.38;;;1.55;;
29574;SDS011;16507;51.046;6.406;2022-08-01T00:35:03;2.15;;;1.85;;
29574;SDS011;16507;51.046;6.406;2022-08-01T00:37:29;3.92;;;1.90;;
29574;SDS011;16507;51.046;6.406;2022-08-01T00:39:54;1.90;;;1.55;;
29574;SDS011;16507;51.046;6.406;2022-08-01T00:42:20;2.00;;;1.90;;
29574;SDS011;16507;51.046;6.406;2022-08-01T00:44:46;5.50;;;1.77;;
29574;SDS011;16507;51.046;6.406;2022-08-01T00:47:11;3.08;;;2.10;;
29574;SDS011;16507;51.046;6.406;2022-08-01T00:49:37;2.40;;;2.08;;
29574;SDS011;16507;51.046;6.406;2022-08-01T00:52:03;3.60;;;1.90;;
29574;SDS011;16507;51.046;6.406;2022-08-01T00:54:30;5.38;;;2.05;;
29574;SDS011;16507;51.046;6.406;2022-08-01T00:56:56;4.55;;;2.10;;
29574;SDS011;16507;51.046;6.406;2022-08-01T00:59:23;2.15;;;1.98;;
29574;SDS011;16507;51.046;6.406;2022-08-01T01:01:49;2.08;;;1.92;;
29574;SDS011;16507;51.046;6.406;2022-08-01T01:04:15;2.13;;;2.03;;
29574;SDS011;16507;51.046;6.406;2022-08-01T01:06:47;3.63;;;2.00;;
29574;SDS011;16507;51.046;6.406;2022-08-01T01:09:34;2.35;;;2.13;;
29574;SDS011;16507;51.046;6.406;2022-08-01T01:14:31;2.40;;;2.20;;
29574;SDS011;16507;51.046;6.406;2022-08-01T01:17:03;1.88;;;1.67;;
29574;SDS011;16507;51.046;6.406;2022-08-01T01:19:33;2.50;;;2.30;;
29574;SDS011;16507;51.046;6.406;2022-08-01T01:24:47;1.95;;;1.83;;
29574;SDS011;16507;51.046;6.406;2022-08-01T01:29:57;2.47;;;1.67;;
29574;SDS011;16507;51.046;6.406;2022-08-01T01:32:33;3.97;;;1.95;;
29574;SDS011;16507;51.046;6.406;2022-08-01T01:35:04;2.58;;;1.85;;
29574;SDS011;16507;51.046;6.406;2022-08-01T01:37:33;2.22;;;1.60;;
29574;SDS011;16507;51.046;6.406;2022-08-01T01:40:00;4.75;;;1.55;;
29574;SDS011;16507;51.046;6.406;2022-08-01T01:42:27;4.10;;;2.20;;
29574;SDS011;16507;51.046;6.406;2022-08-01T01:44:55;3.10;;;1.70;;
29574;SDS011;16507;51.046;6.406;2022-08-01T01:47:21;2.22;;;1.70;;
29574;SDS011;16507;51.046;6.406;2022-08-01T01:49:49;2.88;;;2.33;;
29574;SDS011;16507;51.046;6.406;2022-08-01T01:52:17;1.63;;;1.52;;
29574;SDS011;16507;51.046;6.406;2022-08-01T01:54:45;2.25;;;2.05;;
29574;SDS011;16507;51.046;6.406;2022-08-01T01:57:13;2.05;;;1.90;;
29574;SDS011;16507;51.046;6.406;2022-08-01T01:59:40;1.95;;;1.70;;
29574;SDS011;16507;51.046;6.406;2022-08-01T02:02:07;3.70;;;2.15;;
29574;SDS011;16507;51.046;6.406;2022-08-01T02:04:38;2.35;;;2.17;;
29574;SDS011;16507;51.046;6.406;2022-08-01T02:07:07;2.83;;;2.10;;
29574;SDS011;16507;51.046;6.406;2022-08-01T02:09:35;3.35;;;2.03;;
29574;SDS011;16507;51.046;6.406;2022-08-01T02:12:05;2.53;;;1.73;;
29574;SDS011;16507;51.046;6.406;2022-08-01T02:14:32;2.50;;;2.28;;
29574;SDS011;16507;51.046;6.406;2022-08-01T02:17:02;2.65;;;1.90;;
29574;SDS011;16507;51.046;6.406;2022-08-01T02:19:29;5.07;;;2.03;;
29574;SDS011;16507;51.046;6.406;2022-08-01T02:21:56;5.30;;;1.80;;
29574;SDS011;16507;51.046;6.406;2022-08-01T02:24:40;3.05;;;2.03;;
29574;SDS011;16507;51.046;6.406;2022-08-01T02:27:16;3.03;;;2.10;;
29574;SDS011;16507;51.046;6.406;2022-08-01T02:29:59;4.35;;;1.90;;
29574;SDS011;16507;51.046;6.406;2022-08-01T02:35:20;3.20;;;2.22;;
29574;SDS011;16507;51.046;6.406;2022-08-01T02:37:49;2.42;;;2.22;;
29574;SDS011;16507;51.046;6.406;2022-08-01T02:40:17;3.67;;;2.00;;
29574;SDS011;16507;51.046;6.406;2022-08-01T02:42:45;4.68;;;2.13;;
29574;SDS011;16507;51.046;6.406;2022-08-01T02:45:17;2.60;;;2.00;;
29574;SDS011;16507;51.046;6.406;2022-08-01T02:47:45;3.70;;;1.90;;
29574;SDS011;16507;51.046;6.406;2022-08-01T02:50:13;2.40;;;2.20;;
29574;SDS011;16507;51.046;6.406;2022-08-01T02:52:41;2.50;;;2.30;;
29574;SDS011;16507;51.046;6.406;2022-08-01T02:55:10;3.78;;;2.03;;
29574;SDS011;16507;51.046;6.406;2022-08-01T02:57:37;8.55;;;2.22;;
29574;SDS011;16507;51.046;6.406;2022-08-01T03:00:05;2.85;;;2.65;;
29574;SDS011;16507;51.046;6.406;2022-08-01T03:02:32;2.38;;;2.10;;
29574;SDS011;16507;51.046;6.406;2022-08-01T03:04:59;2.60;;;2.20;;
29574;SDS011;16507;51.046;6.406;2022-08-01T03:07:27;3.28;;;2.38;;
29574;SDS011;16507;51.046;6.406;2022-08-01T03:09:54;4.40;;;2.13;;
29574;SDS011;16507;51.046;6.406;2022-08-01T03:12:22;2.85;;;2.50;;
29574;SDS011;16507;51.046;6.406;2022-08-01T03:14:53;5.47;;;2.92;;
29574;SDS011;16507;51.046;6.406;2022-08-01T03:17:20;3.20;;;2.33;;
29574;SDS011;16507;51.046;6.406;2022-08-01T03:19:49;2.72;;;2.53;;
29574;SDS011;16507;51.046;6.406;2022-08-01T03:22:17;4.70;;;3.20;;
29574;SDS011;16507;51.046;6.406;2022-08-01T03:24:44;3.08;;;2.75;;
29574;SDS011;16507;51.046;6.406;2022-08-01T03:27:14;4.68;;;3.03;;
29574;SDS011;16507;51.046;6.406;2022-08-01T03:29:40;3.63;;;3.05;;
29574;SDS011;16507;51.046;6.406;2022-08-01T03:32:07;3.35;;;3.05;;
29574;SDS011;16507;51.046;6.406;2022-08-01T03:34:35;3.25;;;2.95;;
29574;SDS011;16507;51.046;6.406;2022-08-01T03:38:02;4.63;;;3.38;;
29574;SDS011;16507;51.046;6.406;2022-08-01T03:40:07;4.53;;;3.20;;
29574;SDS011;16507;51.046;6.406;2022-08-01T03:42:45;3.22;;;2.85;;
29574;SDS011;16507;51.046;6.406;2022-08-01T03:45:19;4.13;;;3.53;;
29574;SDS011;16507;51.046;6.406;2022-08-01T03:48:00;3.95;;;3.55;;
29574;SDS011;16507;51.046;6.406;2022-08-01T03:50:28;3.90;;;3.70;;
29574;SDS011;16507;51.046;6.406;2022-08-01T03:52:59;3.78;;;3.47;;
29574;SDS011;16507;51.046;6.406;2022-08-01T03:55:27;7.93;;;4.38;;
29574;SDS011;16507;51.046;6.406;2022-08-01T03:57:55;5.80;;;4.55;;
29574;SDS011;16507;51.046;6.406;2022-08-01T04:00:21;7.53;;;4.32;;
29574;SDS011;16507;51.046;6.406;2022-08-01T04:02:49;5.90;;;4.72;;
29574;SDS011;16507;51.046;6.406;2022-08-01T04:05:16;5.07;;;4.60;;
29574;SDS011;16507;51.046;6.406;2022-08-01T04:07:47;8.50;;;4.22;;
29574;SDS011;16507;51.046;6.406;2022-08-01T04:10:20;11.13;;;5.65;;
29574;SDS011;16507;51.046;6.406;2022-08-01T04:12:47;7.40;;;6.57;;
29574;SDS011;16507;51.046;6.406;2022-08-01T04:15:12;7.65;;;6.85;;
29574;SDS011;16507;51.046;6.406;2022-08-01T04:17:38;9.45;;;7.68;;
29574;SDS011;16507;51.046;6.406;2022-08-01T04:20:05;8.70;;;6.93;;
29574;SDS011;16507;51.046;6.406;2022-08-01T04:22:31;7.40;;;6.88;;
29574;SDS011;16507;51.046;6.406;2022-08-01T04:24:57;9.77;;;7.57;;
29574;SDS011;16507;51.046;6.406;2022-08-01T04:27:32;9.07;;;7.40;;
29574;SDS011;16507;51.046;6.406;2022-08-01T04:30:05;8.23;;;7.38;;
29574;SDS011;16507;51.046;6.406;2022-08-01T04:32:35;12.80;;;8.23;;
29574;SDS011;16507;51.046;6.406;2022-08-01T04:35:05;12.23;;;8.25;;
29574;SDS011;16507;51.046;6.406;2022-08-01T04:37:34;8.75;;;7.93;;
29574;SDS011;16507;51.046;6.406;2022-08-01T04:40:02;14.95;;;8.82;;
29574;SDS011;16507;51.046;6.406;2022-08-01T04:42:30;11.93;;;9.18;;
29574;SDS011;16507;51.046;6.406;2022-08-01T04:44:57;11.30;;;9.63;;
29574;SDS011;16507;51.046;6.406;2022-08-01T04:47:23;16.25;;;10.52;;
29574;SDS011;16507;51.046;6.406;2022-08-01T04:49:54;13.93;;;9.70;;
29574;SDS011;16507;51.046;6.406;2022-08-01T04:52:21;14.95;;;9.50;;
29574;SDS011;16507;51.046;6.406;2022-08-01T04:54:47;14.48;;;9.50;;
29574;SDS011;16507;51.046;6.406;2022-08-01T04:57:12;16.27;;;9.73;;
29574;SDS011;16507;51.046;6.406;2022-08-01T04:59:41;13.75;;;10.32;;
29574;SDS011;16507;51.046;6.406;2022-08-01T05:04:38;11.48;;;10.20;;
29574;SDS011;16507;51.046;6.406;2022-08-01T05:07:05;15.18;;;10.23;;
29574;SDS011;16507;51.046;6.406;2022-08-01T05:09:32;16.65;;;10.50;;
29574;SDS011;16507;51.046;6.406;2022-08-01T05:11:59;14.20;;;10.52;;
29574;SDS011;16507;51.046;6.406;2022-08-01T05:14:26;13.70;;;10.27;;
29574;SDS011;16507;51.046;6.406;2022-08-01T05:16:52;15.32;;;9.63;;
29574;SDS011;16507;51.046;6.406;2022-08-01T05:19:18;12.77;;;7.60;;
29574;SDS011;16507;51.046;6.406;2022-08-01T05:21:45;9.07;;;6.70;;
29574;SDS011;16507;51.046;6.406;2022-08-01T05:24:11;11.35;;;6.40;;
29574;SDS011;16507;51.046;6.406;2022-08-01T05:26:37;6.20;;;5.70;;
29574;SDS011;16507;51.046;6.406;2022-08-01T05:29:03;9.15;;;6.25;;
29574;SDS011;16507;51.046;6.406;2022-08-01T05:31:29;8.93;;;6.95;;
29574;SDS011;16507;51.046;6.406;2022-08-01T05:33:55;8.38;;;5.90;;
29574;SDS011;16507;51.046;6.406;2022-08-01T05:36:20;19.25;;;6.45;;
29574;SDS011;16507;51.046;6.406;2022-08-01T05:38:46;10.20;;;6.00;;
29574;SDS011;16507;51.046;6.406;2022-08-01T05:41:12;8.05;;;5.88;;
29574;SDS011;16507;51.046;6.406;2022-08-01T05:43:37;13.43;;;8.27;;
29574;SDS011;16507;51.046;6.406;2022-08-01T05:46:03;10.68;;;8.13;;
29574;SDS011;16507;51.046;6.406;2022-08-01T05:48:29;13.70;;;8.75;;
29574;SDS011;16507;51.046;6.406;2022-08-01T05:50:55;12.75;;;9.35;;
29574;SDS011;16507;51.046;6.406;2022-08-01T05:53:21;10.57;;;9.07;;
29574;SDS011;16507;51.046;6.406;2022-08-01T05:55:46;12.70;;;8.95;;
29574;SDS011;16507;51.046;6.406;2022-08-01T05:58:12;13.43;;;8.85;;
29574;SDS011;16507;51.046;6.406;2022-08-01T06:00:37;12.00;;;8.25;;
29574;SDS011;16507;51.046;6.406;2022-08-01T06:03:04;14.32;;;9.43;;
29574;SDS011;16507;51.046;6.406;2022-08-01T06:05:29;10.20;;;9.05;;
29574;SDS011;16507;51.046;6.406;2022-08-01T06:07:55;9.82;;;9.00;;
29574;SDS011;16507;51.046;6.406;2022-08-01T06:10:20;14.25;;;8.77;;
29574;SDS011;16507;51.046;6.406;2022-08-01T06:12:46;15.00;;;10.77;;
29574;SDS011;16507;51.046;6.406;2022-08-01T06:15:12;11.93;;;10.07;;
29574;SDS011;16507;51.046;6.406;2022-08-01T06:17:37;11.55;;;9.82;;
29574;SDS011;16507;51.046;6.406;2022-08-01T06:20:04;11.57;;;10.50;;
29574;SDS011;16507;51.046;6.406;2022-08-01T06:22:31;11.10;;;9.77;;
29574;SDS011;16507;51.046;6.406;2022-08-01T06:24:56;11.32;;;10.23;;
29574;SDS011;16507;51.046;6.406;2022-08-01T06:27:22;11.93;;;10.63;;
29574;SDS011;16507;51.046;6.406;2022-08-01T06:29:49;11.18;;;10.00;;
29574;SDS011;16507;51.046;6.406;2022-08-01T06:32:18;11.50;;;9.50;;
29574;SDS011;16507;51.046;6.406;2022-08-01T06:34:44;12.90;;;11.50;;
29574;SDS011;16507;51.046;6.406;2022-08-01T06:37:10;13.00;;;10.80;;
29574;SDS011;16507;51.046;6.406;2022-08-01T06:39:38;16.33;;;11.20;;
29574;SDS011;16507;51.046;6.406;2022-08-01T06:42:03;14.25;;;11.23;;
29574;SDS011;16507;51.046;6.406;2022-08-01T06:44:29;12.07;;;10.98;;
29574;SDS011;16507;51.046;6.406;2022-08-01T06:46:54;17.63;;;11.75;;
29574;SDS011;16507;51.046;6.406;2022-08-01T06:49:20;14.52;;;11.95;;
29574;SDS011;16507;51.046;6.406;2022-08-01T06:51:46;12.55;;;11.38;;
29574;SDS011;16507;51.046;6.406;2022-08-01T06:54:11;12.80;;;11.48;;
29574;SDS011;16507;51.046;6.406;2022-08-01T06:56:37;11.18;;;10.27;;
29574;SDS011;16507;51.046;6.406;2022-08-01T06:59:02;11.10;;;10.05;;
29574;SDS011;16507;51.046;6.406;2022-08-01T07:01:28;10.68;;;9.88;;
29574;SDS011;16507;51.046;6.406;2022-08-01T07:03:54;10.98;;;10.00;;
29574;SDS011;16507;51.046;6.406;2022-08-01T07:06:23;13.10;;;10.02;;
29574;SDS011;16507;51.046;6.406;2022-08-01T07:08:50;15.23;;;10.90;;
29574;SDS011;16507;51.046;6.406;2022-08-01T07:11:16;14.98;;;10.13;;
29574;SDS011;16507;51.046;6.406;2022-08-01T07:13:42;11.80;;;10.82;;
29574;SDS011;16507;51.046;6.406;2022-08-01T07:16:07;10.93;;;9.93;;
29574;SDS011;16507;51.046;6.406;2022-08-01T07:18:33;9.65;;;8.77;;
29574;SDS011;16507;51.046;6.406;2022-08-01T07:20:58;10.48;;;9.63;;
29574;SDS011;16507;51.046;6.406;2022-08-01T07:23:24;8.35;;;7.57;;
29574;SDS011;16507;51.046;6.406;2022-08-01T07:25:50;11.52;;;8.18;;
29574;SDS011;16507;51.046;6.406;2022-08-01T07:28:17;9.45;;;8.75;;
29574;SDS011;16507;51.046;6.406;2022-08-01T07:30:43;8.60;;;7.70;;
29574;SDS011;16507;51.046;6.406;2022-08-01T07:33:09;10.07;;;9.07;;
29574;SDS011;16507;51.046;6.406;2022-08-01T07:35:35;10.77;;;9.82;;
29574;SDS011;16507;51.046;6.406;2022-08-01T07:38:03;10.90;;;9.90;;
29574;SDS011;16507;51.046;6.406;2022-08-01T07:40:32;11.07;;;10.23;;
29574;SDS011;16507;51.046;6.406;2022-08-01T07:42:57;10.07;;;9.07;;
29574;SDS011;16507;51.046;6.406;2022-08-01T07:45:23;10.60;;;9.07;;
29574;SDS011;16507;51.046;6.406;2022-08-01T07:47:49;9.35;;;8.65;;
29574;SDS011;16507;51.046;6.406;2022-08-01T07:50:15;10.95;;;8.57;;
29574;SDS011;16507;51.046;6.406;2022-08-01T07:52:41;9.48;;;8.65;;
29574;SDS011;16507;51.046;6.406;2022-08-01T07:55:08;8.98;;;8.27;;
29574;SDS011;16507;51.046;6.406;2022-08-01T07:57:35;10.25;;;9.45;;
29574;SDS011;16507;51.046;6.406;2022-08-01T08:00:01;10.68;;;9.68;;
29574;SDS011;16507;51.046;6.406;2022-08-01T08:02:28;11.68;;;10.48;;
29574;SDS011;16507;51.046;6.406;2022-08-01T08:04:54;9.43;;;8.73;;
29574;SDS011;16507;51.046;6.406;2022-08-01T08:07:19;14.73;;;9.75;;
29574;SDS011;16507;51.046;6.406;2022-08-01T08:09:45;10.73;;;9.35;;
29574;SDS011;16507;51.046;6.406;2022-08-01T08:12:11;10.13;;;8.55;;
29574;SDS011;16507;51.046;6.406;2022-08-01T08:14:37;10.15;;;9.00;;
29574;SDS011;16507;51.046;6.406;2022-08-01T08:17:03;17.38;;;9.60;;
29574;SDS011;16507;51.046;6.406;2022-08-01T08:19:29;9.05;;;8.35;;
29574;SDS011;16507;51.046;6.406;2022-08-01T08:21:57;13.02;;;8.55;;
29574;SDS011;16507;51.046;6.406;2022-08-01T08:24:23;8.45;;;7.70;;
29574;SDS011;16507;51.046;6.406;2022-08-01T08:26:51;8.07;;;7.30;;
29574;SDS011;16507;51.046;6.406;2022-08-01T08:29:19;7.88;;;7.28;;
29574;SDS011;16507;51.046;6.406;2022-08-01T08:31:45;7.13;;;6.45;;
29574;SDS011;16507;51.046;6.406;2022-08-01T08:34:11;6.53;;;6.13;;
29574;SDS011;16507;51.046;6.406;2022-08-01T08:36:37;9.63;;;6.43;;
29574;SDS011;16507;51.046;6.406;2022-08-01T08:39:03;6.90;;;6.40;;
29574;SDS011;16507;51.046;6.406;2022-08-01T08:41:29;8.75;;;7.00;;
29574;SDS011;16507;51.046;6.406;2022-08-01T08:43:56;7.85;;;6.85;;
29574;SDS011;16507;51.046;6.406;2022-08-01T08:46:24;12.18;;;6.78;;
29574;SDS011;16507;51.046;6.406;2022-08-01T08:48:51;8.00;;;7.20;;
29574;SDS011;16507;51.046;6.406;2022-08-01T08:51:17;7.45;;;6.60;;
29574;SDS011;16507;51.046;6.406;2022-08-01T08:53:45;9.57;;;7.65;;
29574;SDS011;16507;51.046;6.406;2022-08-01T08:56:12;9.93;;;8.13;;
29574;SDS011;16507;51.046;6.406;2022-08-01T08:58:39;9.68;;;8.77;;
29574;SDS011;16507;51.046;6.406;2022-08-01T09:01:08;11.38;;;8.55;;
29574;SDS011;16507;51.046;6.406;2022-08-01T09:03:35;9.95;;;8.48;;
29574;SDS011;16507;51.046;6.406;2022-08-01T09:06:01;11.65;;;8.88;;
29574;SDS011;16507;51.046;6.406;2022-08-01T09:08:27;10.00;;;9.13;;
29574;SDS011;16507;51.046;6.406;2022-08-01T09:10:53;11.27;;;8.00;;
29574;SDS011;16507;51.046;6.406;2022-08-01T09:13:19;8.13;;;7.43;;
29574;SDS011;16507;51.046;6.406;2022-08-01T09:15:52;7.20;;;6.70;;
29574;SDS011;16507;51.046;6.406;2022-08-01T09:18:26;7.30;;;6.72;;
29574;SDS011;16507;51.046;6.406;2022-08-01T09:26:11;4.88;;;4.47;;
29574;SDS011;16507;51.046;6.406;2022-08-01T09:28:39;5.20;;;4.72;;
29574;SDS011;16507;51.046;6.406;2022-08-01T09:31:09;5.22;;;4.72;;
29574;SDS011;16507;51.046;6.406;2022-08-01T09:33:47;7.18;;;5.10;;
29574;SDS011;16507;51.046;6.406;2022-08-01T09:36:26;7.10;;;5.28;;
29574;SDS011;16507;51.046;6.406;2022-08-01T09:39:11;6.88;;;6.40;;
29574;SDS011;16507;51.046;6.406;2022-08-01T09:41:38;4.57;;;4.28;;
29574;SDS011;16507;51.046;6.406;2022-08-01T09:44:04;4.53;;;4.30;;
29574;SDS011;16507;51.046;6.406;2022-08-01T09:46:30;4.25;;;3.92;;
29574;SDS011;16507;51.046;6.406;2022-08-01T09:53:55;5.30;;;4.80;;
29574;SDS011;16507;51.046;6.406;2022-08-01T09:56:21;4.38;;;3.95;;
29574;SDS011;16507;51.046;6.406;2022-08-01T10:01:21;4.85;;;4.45;;
29574;SDS011;16507;51.046;6.406;2022-08-01T10:03:47;3.60;;;3.30;;
29574;SDS011;16507;51.046;6.406;2022-08-01T10:06:32;4.25;;;3.78;;
29574;SDS011;16507;51.046;6.406;2022-08-01T10:08:58;4.32;;;4.13;;
29574;SDS011;16507;51.046;6.406;2022-08-01T10:11:23;3.65;;;3.45;;
29574;SDS011;16507;51.046;6.406;2022-08-01T10:13:50;3.55;;;3.35;;
29574;SDS011;16507;51.046;6.406;2022-08-01T10:16:16;5.95;;;3.42;;
29574;SDS011;16507;51.046;6.406;2022-08-01T10:18:41;2.90;;;2.70;;
29574;SDS011;16507;51.046;6.406;2022-08-01T10:21:09;3.00;;;2.80;;
29574;SDS011;16507;51.046;6.406;2022-08-01T10:23:36;4.68;;;3.03;;
29574;SDS011;16507;51.046;6.406;2022-08-01T10:26:04;2.97;;;2.88;;
29574;SDS011;16507;51.046;6.406;2022-08-01T10:28:31;3.70;;;2.67;;
29574;SDS011;16507;51.046;6.406;2022-08-01T10:31:00;2.70;;;2.60;;
29574;SDS011;16507;51.046;6.406;2022-08-01T10:33:27;3.13;;;2.92;;
29574;SDS011;16507;51.046;6.406;2022-08-01T10:35:54;3.30;;;3.03;;
29574;SDS011;16507;51.046;6.406;2022-08-01T10:38:20;8.10;;;2.40;;
29574;SDS011;16507;51.046;6.406;2022-08-01T10:40:48;3.13;;;2.92;;
29574;SDS011;16507;51.046;6.406;2022-08-01T10:43:14;2.70;;;2.60;;
29574;SDS011;16507;51.046;6.406;2022-08-01T10:45:42;4.90;;;4.50;;
29574;SDS011;16507;51.046;6.406;2022-08-01T10:50:54;3.67;;;3.45;;
29574;SDS011;16507;51.046;6.406;2022-08-01T10:53:23;3.83;;;3.53;;
29574;SDS011;16507;51.046;6.406;2022-08-01T10:58:22;3.50;;;3.30;;
29574;SDS011;16507;51.046;6.406;2022-08-01T11:03:41;4.03;;;3.83;;
29574;SDS011;16507;51.046;6.406;2022-08-01T11:06:18;4.65;;;4.25;;
29574;SDS011;16507;51.046;6.406;2022-08-01T11:08:50;3.63;;;3.42;;
29574;SDS011;16507;51.046;6.406;2022-08-01T11:11:18;4.63;;;4.15;;
29574;SDS011;16507;51.046;6.406;2022-08-01T11:16:29;17.42;;;4.90;;
29574;SDS011;16507;51.046;6.406;2022-08-01T11:18:57;5.03;;;2.92;;
29574;SDS011;16507;51.046;6.406;2022-08-01T11:22:05;3.30;;;3.10;;
29574;SDS011;16507;51.046;6.406;2022-08-01T11:30:39;3.80;;;3.50;;
29574;SDS011;16507;51.046;6.406;2022-08-01T11:32:55;4.32;;;3.65;;
29574;SDS011;16507;51.046;6.406;2022-08-01T11:35:22;3.03;;;2.78;;
29574;SDS011;16507;51.046;6.406;2022-08-01T11:37:51;1.65;;;1.60;;
29574;SDS011;16507;51.046;6.406;2022-08-01T11:40:25;1.58;;;1.38;;
29574;SDS011;16507;51.046;6.406;2022-08-01T11:45:53;1.60;;;1.50;;
29574;SDS011;16507;51.046;6.406;2022-08-01T11:48:24;2.15;;;2.05;;
29574;SDS011;16507;51.046;6.406;2022-08-01T11:50:55;1.73;;;1.60;;
29574;SDS011;16507;51.046;6.406;2022-08-01T11:53:21;2.00;;;1.90;;
29574;SDS011;16507;51.046;6.406;2022-08-01T11:55:49;1.95;;;1.85;;
29574;SDS011;16507;51.046;6.406;2022-08-01T11:58:19;2.42;;;2.20;;
29574;SDS011;16507;51.046;6.406;2022-08-01T12:00:50;2.00;;;1.90;;
29574;SDS011;16507;51.046;6.406;2022-08-01T12:03:26;2.30;;;2.00;;
29574;SDS011;16507;51.046;6.406;2022-08-01T12:05:54;3.17;;;1.90;;
29574;SDS011;16507;51.046;6.406;2022-08-01T12:08:26;1.20;;;1.10;;
29574;SDS011;16507;51.046;6.406;2022-08-01T12:10:53;1.20;;;1.10;;
29574;SDS011;16507;51.046;6.406;2022-08-01T12:13:19;1.30;;;1.20;;
29574;SDS011;16507;51.046;6.406;2022-08-01T12:15:46;0.95;;;0.90;;
29574;SDS011;16507;51.046;6.406;2022-08-01T12:18:12;1.23;;;1.08;;
29574;SDS011;16507;51.046;6.406;2022-08-01T12:20:39;1.95;;;1.00;;
29574;SDS011;16507;51.046;6.406;2022-08-01T12:23:08;1.77;;;1.30;;
29574;SDS011;16507;51.046;6.406;2022-08-01T12:25:35;1.20;;;0.90;;
29574;SDS011;16507;51.046;6.406;2022-08-01T12:28:02;0.80;;;0.80;;
29574;SDS011;16507;51.046;6.406;2022-08-01T12:30:30;1.67;;;0.80;;
29574;SDS011;16507;51.046;6.406;2022-08-01T12:33:00;1.27;;;0.77;;
29574;SDS011;16507;51.046;6.406;2022-08-01T12:35:27;2.20;;;0.70;;
29574;SDS011;16507;51.046;6.406;2022-08-01T12:37:55;4.55;;;0.65;;
29574;SDS011;16507;51.046;6.406;2022-08-01T12:40:32;1.17;;;0.60;;
29574;SDS011;16507;51.046;6.406;2022-08-01T12:43:05;2.95;;;0.85;;
29574;SDS011;16507;51.046;6.406;2022-08-01T12:45:33;10.10;;;0.83;;
29574;SDS011;16507;51.046;6.406;2022-08-01T12:48:11;1.95;;;0.90;;
29574;SDS011;16507;51.046;6.406;2022-08-01T12:50:38;6.85;;;1.00;;
29574;SDS011;16507;51.046;6.406;2022-08-01T12:53:07;1.77;;;1.00;;
29574;SDS011;16507;51.046;6.406;2022-08-01T12:55:33;1.15;;;0.93;;
29574;SDS011;16507;51.046;6.406;2022-08-01T12:58:13;2.38;;;0.95;;
29574;SDS011;16507;51.046;6.406;2022-08-01T13:00:40;0.65;;;0.65;;
29574;SDS011;16507;51.046;6.406;2022-08-01T13:03:18;2.70;;;1.10;;
29574;SDS011;16507;51.046;6.406;2022-08-01T13:08:14;0.80;;;0.80;;
29574;SDS011;16507;51.046;6.406;2022-08-01T13:10:41;2.97;;;0.80;;
29574;SDS011;16507;51.046;6.406;2022-08-01T13:13:07;4.22;;;1.17;;
29574;SDS011;16507;51.046;6.406;2022-08-01T13:15:34;0.80;;;0.80;;
29574;SDS011;16507;51.046;6.406;2022-08-01T13:20:48;5.18;;;0.90;;
29574;SDS011;16507;51.046;6.406;2022-08-01T13:23:14;1.33;;;1.13;;
29574;SDS011;16507;51.046;6.406;2022-08-01T13:25:48;5.10;;;1.00;;
29574;SDS011;16507;51.046;6.406;2022-08-01T13:28:19;1.02;;;0.90;;
29574;SDS011;16507;51.046;6.406;2022-08-01T13:30:52;0.90;;;0.90;;
29574;SDS011;16507;51.046;6.406;2022-08-01T13:33:19;0.80;;;0.80;;
29574;SDS011;16507;51.046;6.406;2022-08-01T13:35:45;0.90;;;0.90;;
29574;SDS011;16507;51.046;6.406;2022-08-01T13:38:12;1.00;;;1.00;;
29574;SDS011;16507;51.046;6.406;2022-08-01T13:40:38;0.93;;;0.70;;
29574;SDS011;16507;51.046;6.406;2022-08-01T13:43:04;0.80;;;0.80;;
29574;SDS011;16507;51.046;6.406;2022-08-01T13:45:29;0.95;;;0.80;;
29574;SDS011;16507;51.046;6.406;2022-08-01T13:47:55;0.90;;;0.90;;
29574;SDS011;16507;51.046;6.406;2022-08-01T13:50:21;1.67;;;0.85;;
29574;SDS011;16507;51.046;6.406;2022-08-01T13:52:46;0.93;;;0.82;;
29574;SDS011;16507;51.046;6.406;2022-08-01T13:55:12;0.80;;;0.80;;
29574;SDS011;16507;51.046;6.406;2022-08-01T13:57:37;1.75;;;0.90;;
29574;SDS011;16507;51.046;6.406;2022-08-01T14:00:04;0.70;;;0.70;;
29574;SDS011;16507;51.046;6.406;2022-08-01T14:02:31;0.60;;;0.60;;
29574;SDS011;16507;51.046;6.406;2022-08-01T14:04:57;2.35;;;0.90;;
29574;SDS011;16507;51.046;6.406;2022-08-01T14:07:23;1.05;;;0.77;;
29574;SDS011;16507;51.046;6.406;2022-08-01T14:09:49;1.05;;;0.95;;
29574;SDS011;16507;51.046;6.406;2022-08-01T14:12:15;0.90;;;0.90;;
29574;SDS011;16507;51.046;6.406;2022-08-01T14:14:41;1.88;;;0.90;;
29574;SDS011;16507;51.046;6.406;2022-08-01T14:17:06;2.10;;;0.80;;
29574;SDS011;16507;51.046;6.406;2022-08-01T14:19:32;1.20;;;1.10;;
29574;SDS011;16507;51.046;6.406;2022-08-01T14:21:58;1.48;;;0.90;;
29574;SDS011;16507;51.046;6.406;2022-08-01T14:24:23;2.05;;;1.08;;
29574;SDS011;16507;51.046;6.406;2022-08-01T14:26:51;1.00;;;1.00;;
29574;SDS011;16507;51.046;6.406;2022-08-01T14:29:16;0.90;;;0.90;;
29574;SDS011;16507;51.046;6.406;2022-08-01T14:31:42;1.02;;;0.90;;
29574;SDS011;16507;51.046;6.406;2022-08-01T14:34:08;2.50;;;1.00;;
29574;SDS011;16507;51.046;6.406;2022-08-01T14:36:33;0.93;;;0.77;;
29574;SDS011;16507;51.046;6.406;2022-08-01T14:38:59;0.95;;;0.95;;
29574;SDS011;16507;51.046;6.406;2022-08-01T14:41:25;1.95;;;0.90;;
29574;SDS011;16507;51.046;6.406;2022-08-01T14:43:50;1.80;;;0.98;;
29574;SDS011;16507;51.046;6.406;2022-08-01T14:46:16;0.95;;;0.68;;
29574;SDS011;16507;51.046;6.406;2022-08-01T14:48:41;1.65;;;0.90;;
29574;SDS011;16507;51.046;6.406;2022-08-01T14:51:07;0.95;;;0.80;;
29574;SDS011;16507;51.046;6.406;2022-08-01T14:53:33;1.50;;;0.88;;
29574;SDS011;16507;51.046;6.406;2022-08-01T14:56:05;0.82;;;0.82;;
29574;SDS011;16507;51.046;6.406;2022-08-01T14:58:32;0.70;;;0.70;;
29574;SDS011;16507;51.046;6.406;2022-08-01T15:00:57;0.75;;;0.60;;
29574;SDS011;16507;51.046;6.406;2022-08-01T15:03:23;4.43;;;0.93;;
29574;SDS011;16507;51.046;6.406;2022-08-01T15:05:49;1.25;;;0.80;;
29574;SDS011;16507;51.046;6.406;2022-08-01T15:08:14;0.98;;;0.80;;
29574;SDS011;16507;51.046;6.406;2022-08-01T15:10:40;0.60;;;0.60;;
29574;SDS011;16507;51.046;6.406;2022-08-01T15:13:06;1.00;;;1.00;;
29574;SDS011;16507;51.046;6.406;2022-08-01T15:15:32;1.45;;;0.98;;
29574;SDS011;16507;51.046;6.406;2022-08-01T15:17:58;0.80;;;0.75;;
29574;SDS011;16507;51.046;6.406;2022-08-01T15:20:24;1.08;;;0.70;;
29574;SDS011;16507;51.046;6.406;2022-08-01T15:22:52;1.83;;;0.85;;
29574;SDS011;16507;51.046;6.406;2022-08-01T15:25:18;1.27;;;0.80;;
29574;SDS011;16507;51.046;6.406;2022-08-01T15:27:44;1.10;;;0.80;;
29574;SDS011;16507;51.046;6.406;2022-08-01T15:30:09;1.10;;;0.85;;
29574;SDS011;16507;51.046;6.406;2022-08-01T15:32:35;1.38;;;0.80;;
29574;SDS011;16507;51.046;6.406;2022-08-01T15:35:01;0.80;;;0.68;;
29574;SDS011;16507;51.046;6.406;2022-08-01T15:37:27;0.90;;;0.80;;